sensor_id;sensor_type;location;lat;lon;timestamp;pressure;altitude;pressure_sealevel;temperature;humidity
6032;BME280;3044;43.232;27.972;2023-08-31T00:00:14;45077.63;;;-143.84;97.53
6032;BME280;3044;43.232;27.972;2023-08-31T00:02:41;45068.13;;;-143.84;97.66
6032;BME280;3044;43.232;27.972;2023-08-31T00:05:10;45056.69;;;-143.84;97.52
6032;BME280;3044;43.232;27.972;2023-08-31T00:07:37;45083.34;;;-143.84;97.96
6032;BME280;3044;43.232;27.972;2023-08-31T00:10:05;45060.50;;;-143.84;97.95
6032;BME280;3044;43.232;27.972;2023-08-31T00:12:35;45068.13;;;-143.84;98.15
6032;BME280;3044;43.232;27.972;2023-08-31T00:15:04;45066.22;;;-143.84;98.01
6032;BME280;3044;43.232;27.972;2023-08-31T00:17:31;45073.81;;;-143.84;98.09
6032;BME280;3044;43.232;27.972;2023-08-31T00:19:58;45050.97;;;-143.84;98.32
6032;BME280;3044;43.232;27.972;2023-08-31T00:22:27;45073.81;;;-143.84;98.61
6032;BME280;3044;43.232;27.972;2023-08-31T00:24:54;45071.91;;;-143.84;98.32
6032;BME280;3044;43.232;27.972;2023-08-31T00:27:21;45077.63;;;-143.84;98.63
6032;BME280;3044;43.232;27.972;2023-08-31T00:29:48;45054.78;;;-143.84;98.31
6032;BME280;3044;43.232;27.972;2023-08-31T00:32:16;45075.72;;;-143.84;98.69
6032;BME280;3044;43.232;27.972;2023-08-31T00:34:44;45073.81;;;-143.84;98.44
6032;BME280;3044;43.232;27.972;2023-08-31T00:37:11;45070.00;;;-143.84;97.96
6032;BME280;3044;43.232;27.972;2023-08-31T00:39:39;45041.44;;;-143.84;98.27
6032;BME280;3044;43.232;27.972;2023-08-31T00:42:06;45077.63;;;-143.84;98.03
6032;BME280;3044;43.232;27.972;2023-08-31T00:44:34;45070.00;;;-143.84;97.83
6032;BME280;3044;43.232;27.972;2023-08-31T00:47:01;45037.66;;;-143.84;97.58
6032;BME280;3044;43.232;27.972;2023-08-31T00:49:29;45068.13;;;-143.84;97.89
6032;BME280;3044;43.232;27.972;2023-08-31T00:51:56;45083.34;;;-143.84;97.69
6032;BME280;3044;43.232;27.972;2023-08-31T00:54:23;45041.44;;;-143.84;97.56
6032;BME280;3044;43.232;27.972;2023-08-31T00:56:54;45060.50;;;-143.84;97.37
6032;BME280;3044;43.232;27.972;2023-08-31T00:59:23;45052.88;;;-143.84;97.21
6032;BME280;3044;43.232;27.972;2023-08-31T01:01:59;45070.00;;;-143.84;96.64
6032;BME280;3044;43.232;27.972;2023-08-31T01:04:37;45064.31;;;-143.84;96.63
6032;BME280;3044;43.232;27.972;2023-08-31T01:07:15;45068.13;;;-143.84;96.70
6032;BME280;3044;43.232;27.972;2023-08-31T01:09:55;45070.00;;;-143.84;96.70
6032;BME280;3044;43.232;27.972;2023-08-31T01:12:31;45071.91;;;-143.84;97.06
6032;BME280;3044;43.232;27.972;2023-08-31T01:15:04;45073.81;;;-143.84;97.17
6032;BME280;3044;43.232;27.972;2023-08-31T01:17:38;45066.22;;;-143.84;97.29
6032;BME280;3044;43.232;27.972;2023-08-31T01:20:09;45071.91;;;-143.84;97.30
6032;BME280;3044;43.232;27.972;2023-08-31T01:22:40;45085.25;;;-143.84;97.72
6032;BME280;3044;43.232;27.972;2023-08-31T01:25:12;45071.91;;;-143.84;97.87
6032;BME280;3044;43.232;27.972;2023-08-31T01:27:39;45071.91;;;-143.84;98.21
6032;BME280;3044;43.232;27.972;2023-08-31T01:30:07;45058.59;;;-143.84;98.34
6032;BME280;3044;43.232;27.972;2023-08-31T01:32:35;45090.97;;;-143.84;98.42
6032;BME280;3044;43.232;27.972;2023-08-31T01:35:03;45058.59;;;-143.84;98.07
6032;BME280;3044;43.232;27.972;2023-08-31T01:37:36;45073.81;;;-143.84;98.33
6032;BME280;3044;43.232;27.972;2023-08-31T01:40:09;45056.69;;;-143.84;98.64
6032;BME280;3044;43.232;27.972;2023-08-31T01:42:42;45083.34;;;-143.84;98.86
6032;BME280;3044;43.232;27.972;2023-08-31T01:45:11;45081.44;;;-143.84;98.72
6032;BME280;3044;43.232;27.972;2023-08-31T01:47:41;45052.88;;;-143.84;98.92
6032;BME280;3044;43.232;27.972;2023-08-31T01:50:09;45068.13;;;-143.84;98.97
6032;BME280;3044;43.232;27.972;2023-08-31T01:52:36;45062.41;;;-143.84;98.86
6032;BME280;3044;43.232;27.972;2023-08-31T01:55:04;45045.25;;;-143.84;98.97
6032;BME280;3044;43.232;27.972;2023-08-31T01:57:31;45073.81;;;-143.84;99.37
6032;BME280;3044;43.232;27.972;2023-08-31T02:00:00;45068.13;;;-143.84;99.32
6032;BME280;3044;43.232;27.972;2023-08-31T02:02:27;45056.69;;;-143.84;99.33
6032;BME280;3044;43.232;27.972;2023-08-31T02:04:54;45062.41;;;-143.84;99.52
6032;BME280;3044;43.232;27.972;2023-08-31T02:07:21;45090.97;;;-143.84;99.43
6032;BME280;3044;43.232;27.972;2023-08-31T02:09:48;45079.53;;;-143.84;99.74
6032;BME280;3044;43.232;27.972;2023-08-31T02:12:16;45083.34;;;-143.84;99.43
6032;BME280;3044;43.232;27.972;2023-08-31T02:14:43;45062.41;;;-143.84;99.20
6032;BME280;3044;43.232;27.972;2023-08-31T02:17:11;45041.44;;;-143.84;98.80
6032;BME280;3044;43.232;27.972;2023-08-31T02:19:38;45064.31;;;-143.84;98.66
6032;BME280;3044;43.232;27.972;2023-08-31T02:22:05;45054.78;;;-143.84;98.65
6032;BME280;3044;43.232;27.972;2023-08-31T02:24:32;45066.22;;;-143.84;98.34
6032;BME280;3044;43.232;27.972;2023-08-31T02:26:59;45079.53;;;-143.84;98.61
6032;BME280;3044;43.232;27.972;2023-08-31T02:29:27;45077.63;;;-143.84;98.66
6032;BME280;3044;43.232;27.972;2023-08-31T02:31:54;45058.59;;;-143.84;98.69
6032;BME280;3044;43.232;27.972;2023-08-31T02:34:22;45077.63;;;-143.84;98.63
6032;BME280;3044;43.232;27.972;2023-08-31T02:36:49;45094.78;;;-143.84;98.88
6032;BME280;3044;43.232;27.972;2023-08-31T02:39:17;45077.63;;;-143.84;98.94
6032;BME280;3044;43.232;27.972;2023-08-31T02:41:44;45083.34;;;-143.84;98.78
6032;BME280;3044;43.232;27.972;2023-08-31T02:44:11;45085.25;;;-143.84;98.89
6032;BME280;3044;43.232;27.972;2023-08-31T02:46:38;45104.28;;;-143.84;98.93
6032;BME280;3044;43.232;27.972;2023-08-31T02:49:05;45087.16;;;-143.84;99.09
6032;BME280;3044;43.232;27.972;2023-08-31T02:51:34;45090.97;;;-143.84;99.00
6032;BME280;3044;43.232;27.972;2023-08-31T02:54:01;45068.13;;;-143.84;99.23
6032;BME280;3044;43.232;27.972;2023-08-31T02:56:29;45081.44;;;-143.84;99.39
6032;BME280;3044;43.232;27.972;2023-08-31T02:58:56;45079.53;;;-143.84;99.59
6032;BME280;3044;43.232;27.972;2023-08-31T03:01:23;45100.47;;;-143.84;99.80
6032;BME280;3044;43.232;27.972;2023-08-31T03:03:50;45083.34;;;-143.84;99.90
6032;BME280;3044;43.232;27.972;2023-08-31T03:06:17;45071.91;;;-143.84;99.94
6032;BME280;3044;43.232;27.972;2023-08-31T03:08:46;45071.91;;;-143.84;100.00
6032;BME280;3044;43.232;27.972;2023-08-31T03:11:13;45092.88;;;-143.84;100.00
6032;BME280;3044;43.232;27.972;2023-08-31T03:13:41;45062.41;;;-143.84;100.00
6032;BME280;3044;43.232;27.972;2023-08-31T03:16:08;45090.97;;;-143.84;100.00
6032;BME280;3044;43.232;27.972;2023-08-31T03:18:35;45079.53;;;-143.84;100.00
6032;BME280;3044;43.232;27.972;2023-08-31T03:21:02;45071.91;;;-143.84;100.00
6032;BME280;3044;43.232;27.972;2023-08-31T03:23:30;45077.63;;;-143.84;100.00
6032;BME280;3044;43.232;27.972;2023-08-31T03:25:58;45073.81;;;-143.84;100.00
6032;BME280;3044;43.232;27.972;2023-08-31T03:28:25;45075.72;;;-143.84;100.00
6032;BME280;3044;43.232;27.972;2023-08-31T03:30:56;45071.91;;;-143.84;100.00
6032;BME280;3044;43.232;27.972;2023-08-31T03:33:23;45087.16;;;-143.84;100.00
6032;BME280;3044;43.232;27.972;2023-08-31T03:35:50;45104.28;;;-143.84;100.00
6032;BME280;3044;43.232;27.972;2023-08-31T03:38:17;45096.66;;;-143.84;100.00
6032;BME280;3044;43.232;27.972;2023-08-31T03:40:52;45085.25;;;-143.84;100.00
6032;BME280;3044;43.232;27.972;2023-08-31T03:43:21;45056.69;;;-143.84;100.00
6032;BME280;3044;43.232;27.972;2023-08-31T03:45:48;45087.16;;;-143.84;100.00
6032;BME280;3044;43.232;27.972;2023-08-31T03:48:15;45037.66;;;-143.84;100.00
6032;BME280;3044;43.232;27.972;2023-08-31T03:50:43;45070.00;;;-143.84;100.00
6032;BME280;3044;43.232;27.972;2023-08-31T03:53:10;45077.63;;;-143.84;100.00
6032;BME280;3044;43.232;27.972;2023-08-31T03:55:37;45079.53;;;-143.84;100.00
6032;BME280;3044;43.232;27.972;2023-08-31T03:58:04;45100.47;;;-143.84;100.00
6032;BME280;3044;43.232;27.972;2023-08-31T04:00:32;45064.31;;;-143.84;100.00
6032;BME280;3044;43.232;27.972;2023-08-31T04:03:00;45071.91;;;-143.84;100.00
6032;BME280;3044;43.232;27.972;2023-08-31T04:05:27;45117.63;;;-143.84;100.00
6032;BME280;3044;43.232;27.972;2023-08-31T04:07:54;45104.28;;;-143.84;100.00
6032;BME280;3044;43.232;27.972;2023-08-31T04:10:21;45092.88;;;-143.84;100.00
6032;BME280;3044;43.232;27.972;2023-08-31T04:12:49;45064.31;;;-143.84;100.00
6032;BME280;3044;43.232;27.972;2023-08-31T04:15:16;45094.78;;;-143.84;100.00
6032;BME280;3044;43.232;27.972;2023-08-31T04:17:45;45075.72;;;-143.84;100.00
6032;BME280;3044;43.232;27.972;2023-08-31T04:20:12;45083.34;;;-143.84;100.00
6032;BME280;3044;43.232;27.972;2023-08-31T04:22:40;45077.63;;;-143.84;100.00
6032;BME280;3044;43.232;27.972;2023-08-31T04:25:07;45087.16;;;-143.84;100.00
6032;BME280;3044;43.232;27.972;2023-08-31T04:27:34;45098.56;;;-143.84;100.00
6032;BME280;3044;43.232;27.972;2023-08-31T04:30:05;45056.69;;;-143.84;99.88
6032;BME280;3044;43.232;27.972;2023-08-31T04:32:33;45043.34;;;-143.84;100.00
6032;BME280;3044;43.232;27.972;2023-08-31T04:35:03;45087.16;;;-143.84;100.00
6032;BME280;3044;43.232;27.972;2023-08-31T04:37:33;45094.78;;;-143.84;100.00
6032;BME280;3044;43.232;27.972;2023-08-31T04:40:00;45073.81;;;-143.84;100.00
6032;BME280;3044;43.232;27.972;2023-08-31T04:42:29;45090.97;;;-143.84;100.00
6032;BME280;3044;43.232;27.972;2023-08-31T04:44:56;45075.72;;;-143.84;99.94
6032;BME280;3044;43.232;27.972;2023-08-31T04:47:23;45085.25;;;-143.84;99.97
6032;BME280;3044;43.232;27.972;2023-08-31T04:49:51;45096.66;;;-143.84;99.92
6032;BME280;3044;43.232;27.972;2023-08-31T04:52:19;45092.88;;;-143.84;99.21
6032;BME280;3044;43.232;27.972;2023-08-31T04:54:46;45077.63;;;-143.84;99.00
6032;BME280;3044;43.232;27.972;2023-08-31T04:57:14;45075.72;;;-143.84;98.78
6032;BME280;3044;43.232;27.972;2023-08-31T04:59:41;45094.78;;;-143.84;98.38
6032;BME280;3044;43.232;27.972;2023-08-31T05:02:08;45068.13;;;-143.84;98.14
6032;BME280;3044;43.232;27.972;2023-08-31T05:04:35;45092.88;;;-143.84;97.72
6032;BME280;3044;43.232;27.972;2023-08-31T05:07:03;45052.88;;;-143.84;96.64
6032;BME280;3044;43.232;27.972;2023-08-31T05:09:31;45070.00;;;-143.84;96.61
6032;BME280;3044;43.232;27.972;2023-08-31T05:12:00;45052.88;;;-143.84;96.01
6032;BME280;3044;43.232;27.972;2023-08-31T05:14:28;45035.75;;;-143.84;95.67
6032;BME280;3044;43.232;27.972;2023-08-31T05:16:56;45075.72;;;-143.84;95.02
6032;BME280;3044;43.232;27.972;2023-08-31T05:19:23;45052.88;;;-143.84;94.93
6032;BME280;3044;43.232;27.972;2023-08-31T05:21:50;45033.84;;;-143.84;94.94
6032;BME280;3044;43.232;27.972;2023-08-31T05:24:17;45081.44;;;-143.84;95.11
6032;BME280;3044;43.232;27.972;2023-08-31T05:26:46;45062.41;;;-143.84;94.65
6032;BME280;3044;43.232;27.972;2023-08-31T05:29:13;45083.34;;;-143.84;94.33
6032;BME280;3044;43.232;27.972;2023-08-31T05:31:40;45087.16;;;-143.84;94.54
6032;BME280;3044;43.232;27.972;2023-08-31T05:34:09;45079.53;;;-143.84;93.99
6032;BME280;3044;43.232;27.972;2023-08-31T05:36:37;45062.41;;;-143.84;94.04
6032;BME280;3044;43.232;27.972;2023-08-31T05:39:04;45066.22;;;-143.84;93.90
6032;BME280;3044;43.232;27.972;2023-08-31T05:41:31;45064.31;;;-143.84;92.97
6032;BME280;3044;43.232;27.972;2023-08-31T05:43:59;45070.00;;;-143.84;92.24
6032;BME280;3044;43.232;27.972;2023-08-31T05:46:26;45077.63;;;-143.84;91.32
6032;BME280;3044;43.232;27.972;2023-08-31T05:48:54;45064.31;;;-143.84;91.86
6032;BME280;3044;43.232;27.972;2023-08-31T05:51:21;45052.88;;;-143.84;91.22
6032;BME280;3044;43.232;27.972;2023-08-31T05:53:48;45041.44;;;-143.84;90.15
6032;BME280;3044;43.232;27.972;2023-08-31T05:56:15;45047.16;;;-143.84;89.87
6032;BME280;3044;43.232;27.972;2023-08-31T05:58:42;45045.25;;;-143.84;89.27
6032;BME280;3044;43.232;27.972;2023-08-31T06:01:10;45062.41;;;-143.84;87.71
6032;BME280;3044;43.232;27.972;2023-08-31T06:03:38;45020.50;;;-143.84;87.25
6032;BME280;3044;43.232;27.972;2023-08-31T06:06:05;45037.66;;;-143.84;86.71
6032;BME280;3044;43.232;27.972;2023-08-31T06:08:32;45068.13;;;-143.84;86.08
6032;BME280;3044;43.232;27.972;2023-08-31T06:10:59;45030.03;;;-143.84;85.11
6032;BME280;3044;43.232;27.972;2023-08-31T06:13:26;45014.78;;;-143.84;83.92
6032;BME280;3044;43.232;27.972;2023-08-31T06:15:53;45037.66;;;-143.84;83.32
6032;BME280;3044;43.232;27.972;2023-08-31T06:18:24;45010.97;;;-143.84;82.11
6032;BME280;3044;43.232;27.972;2023-08-31T06:20:52;45016.69;;;-143.84;80.12
6032;BME280;3044;43.232;27.972;2023-08-31T06:23:19;45005.28;;;-143.84;79.61
6032;BME280;3044;43.232;27.972;2023-08-31T06:25:46;44995.75;;;-143.84;79.02
6032;BME280;3044;43.232;27.972;2023-08-31T06:28:13;45014.78;;;-143.84;78.28
6032;BME280;3044;43.232;27.972;2023-08-31T06:30:41;45020.50;;;-143.84;78.20
6032;BME280;3044;43.232;27.972;2023-08-31T06:33:12;45028.13;;;-143.84;76.63
6032;BME280;3044;43.232;27.972;2023-08-31T06:35:40;44995.75;;;-143.84;75.89
6032;BME280;3044;43.232;27.972;2023-08-31T06:38:07;45005.28;;;-143.84;76.29
6032;BME280;3044;43.232;27.972;2023-08-31T06:40:34;45003.38;;;-143.84;76.24
6032;BME280;3044;43.232;27.972;2023-08-31T06:43:02;44991.94;;;-143.84;74.85
6032;BME280;3044;43.232;27.972;2023-08-31T06:45:29;44974.81;;;-143.84;72.60
6032;BME280;3044;43.232;27.972;2023-08-31T06:47:56;45012.88;;;-143.84;70.90
6032;BME280;3044;43.232;27.972;2023-08-31T06:50:23;44986.22;;;-143.84;69.59
6032;BME280;3044;43.232;27.972;2023-08-31T06:52:52;44990.03;;;-143.84;69.21
6032;BME280;3044;43.232;27.972;2023-08-31T06:55:19;44976.72;;;-143.84;67.76
6032;BME280;3044;43.232;27.972;2023-08-31T06:57:46;44974.81;;;-143.84;66.84
6032;BME280;3044;43.232;27.972;2023-08-31T07:00:13;44934.81;;;-143.84;65.73
6032;BME280;3044;43.232;27.972;2023-08-31T07:02:41;44997.66;;;-143.84;64.94
6032;BME280;3044;43.232;27.972;2023-08-31T07:05:10;44978.63;;;-143.84;63.94
6032;BME280;3044;43.232;27.972;2023-08-31T07:07:37;44974.81;;;-143.84;63.59
6032;BME280;3044;43.232;27.972;2023-08-31T07:10:07;44990.03;;;-143.84;62.80
6032;BME280;3044;43.232;27.972;2023-08-31T07:12:34;44959.56;;;-143.84;63.70
6032;BME280;3044;43.232;27.972;2023-08-31T07:15:01;44967.19;;;-143.84;62.48
6032;BME280;3044;43.232;27.972;2023-08-31T07:17:29;44971.00;;;-143.84;60.89
6032;BME280;3044;43.232;27.972;2023-08-31T07:19:56;44946.25;;;-143.84;59.85
6032;BME280;3044;43.232;27.972;2023-08-31T07:22:23;44974.81;;;-143.84;59.05
6032;BME280;3044;43.232;27.972;2023-08-31T07:24:50;44950.06;;;-143.84;58.69
6032;BME280;3044;43.232;27.972;2023-08-31T07:27:19;44946.25;;;-143.84;57.89
6032;BME280;3044;43.232;27.972;2023-08-31T07:29:46;44934.81;;;-143.84;57.11
6032;BME280;3044;43.232;27.972;2023-08-31T07:32:13;44908.16;;;-143.84;56.39
6032;BME280;3044;43.232;27.972;2023-08-31T07:34:40;44948.16;;;-143.84;55.73
6032;BME280;3044;43.232;27.972;2023-08-31T07:37:07;44961.47;;;-143.84;55.00
6032;BME280;3044;43.232;27.972;2023-08-31T07:39:34;44940.53;;;-143.84;54.43
6032;BME280;3044;43.232;27.972;2023-08-31T07:42:02;44942.44;;;-143.84;53.29
6032;BME280;3044;43.232;27.972;2023-08-31T07:44:30;44925.31;;;-143.84;52.28
6032;BME280;3044;43.232;27.972;2023-08-31T07:46:57;44904.34;;;-143.84;52.23
6032;BME280;3044;43.232;27.972;2023-08-31T07:49:24;44929.09;;;-143.84;51.61
6032;BME280;3044;43.232;27.972;2023-08-31T07:51:52;44925.31;;;-143.84;50.94
6032;BME280;3044;43.232;27.972;2023-08-31T07:54:19;44911.97;;;-143.84;51.21
6032;BME280;3044;43.232;27.972;2023-08-31T07:56:47;44908.16;;;-143.84;50.93
6032;BME280;3044;43.232;27.972;2023-08-31T07:59:14;44917.69;;;-143.84;50.36
6032;BME280;3044;43.232;27.972;2023-08-31T08:01:42;44902.44;;;-143.84;50.11
6032;BME280;3044;43.232;27.972;2023-08-31T08:04:11;44908.16;;;-143.84;49.59
6032;BME280;3044;43.232;27.972;2023-08-31T08:06:38;44910.06;;;-143.84;50.25
6032;BME280;3044;43.232;27.972;2023-08-31T08:09:05;44917.69;;;-143.84;50.09
6032;BME280;3044;43.232;27.972;2023-08-31T08:11:34;44921.50;;;-143.84;49.97
6032;BME280;3044;43.232;27.972;2023-08-31T08:14:01;44929.09;;;-143.84;50.02
6032;BME280;3044;43.232;27.972;2023-08-31T08:16:29;44944.34;;;-143.84;50.62
6032;BME280;3044;43.232;27.972;2023-08-31T08:18:57;44938.63;;;-143.84;50.39
6032;BME280;3044;43.232;27.972;2023-08-31T08:21:25;44950.06;;;-143.84;48.29
6032;BME280;3044;43.232;27.972;2023-08-31T08:23:52;44931.00;;;-143.84;49.00
6032;BME280;3044;43.232;27.972;2023-08-31T08:26:19;44934.81;;;-143.84;48.94
6032;BME280;3044;43.232;27.972;2023-08-31T08:28:46;44906.25;;;-143.84;47.81
6032;BME280;3044;43.232;27.972;2023-08-31T08:31:13;44911.97;;;-143.84;50.31
6032;BME280;3044;43.232;27.972;2023-08-31T08:33:40;44936.72;;;-143.84;49.45
6032;BME280;3044;43.232;27.972;2023-08-31T08:36:09;44925.31;;;-143.84;48.65
6032;BME280;3044;43.232;27.972;2023-08-31T08:38:36;44927.19;;;-143.84;48.04
6032;BME280;3044;43.232;27.972;2023-08-31T08:41:06;44927.19;;;-143.84;48.49
6032;BME280;3044;43.232;27.972;2023-08-31T08:43:34;44917.69;;;-143.84;49.22
6032;BME280;3044;43.232;27.972;2023-08-31T08:46:05;44940.53;;;-143.84;48.52
6032;BME280;3044;43.232;27.972;2023-08-31T08:48:34;44917.69;;;-143.84;48.09
6032;BME280;3044;43.232;27.972;2023-08-31T08:51:02;44929.09;;;-143.84;46.74
6032;BME280;3044;43.232;27.972;2023-08-31T08:53:32;44919.59;;;-143.84;46.55
6032;BME280;3044;43.232;27.972;2023-08-31T08:55:59;44887.22;;;-143.84;44.85
6032;BME280;3044;43.232;27.972;2023-08-31T08:58:26;44927.19;;;-143.84;44.94
6032;BME280;3044;43.232;27.972;2023-08-31T09:00:57;44950.06;;;-143.84;43.62
6032;BME280;3044;43.232;27.972;2023-08-31T09:03:24;44942.44;;;-143.84;47.88
6032;BME280;3044;43.232;27.972;2023-08-31T09:05:51;44971.00;;;-143.84;49.14
6032;BME280;3044;43.232;27.972;2023-08-31T09:08:25;44931.00;;;-143.84;50.87
6032;BME280;3044;43.232;27.972;2023-08-31T09:10:56;44959.56;;;-143.84;51.77
6032;BME280;3044;43.232;27.972;2023-08-31T09:13:26;44942.44;;;-143.84;53.41
6032;BME280;3044;43.232;27.972;2023-08-31T09:15:54;44942.44;;;-143.84;55.13
6032;BME280;3044;43.232;27.972;2023-08-31T09:18:23;44929.09;;;-143.84;53.24
6032;BME280;3044;43.232;27.972;2023-08-31T09:20:51;44902.44;;;-143.84;53.07
6032;BME280;3044;43.232;27.972;2023-08-31T09:23:18;44929.09;;;-143.84;50.64
6032;BME280;3044;43.232;27.972;2023-08-31T09:25:46;44951.97;;;-143.84;50.25
6032;BME280;3044;43.232;27.972;2023-08-31T09:28:16;44936.72;;;-143.84;50.84
6032;BME280;3044;43.232;27.972;2023-08-31T09:30:46;44942.44;;;-143.84;50.91
6032;BME280;3044;43.232;27.972;2023-08-31T09:33:14;44898.66;;;-143.84;50.16
6032;BME280;3044;43.232;27.972;2023-08-31T09:35:47;44911.97;;;-143.84;52.92
6032;BME280;3044;43.232;27.972;2023-08-31T09:38:14;44931.00;;;-143.84;53.93
6032;BME280;3044;43.232;27.972;2023-08-31T09:40:42;44948.16;;;-143.84;54.40
6032;BME280;3044;43.232;27.972;2023-08-31T09:43:09;44969.09;;;-143.84;55.62
6032;BME280;3044;43.232;27.972;2023-08-31T09:45:38;44923.41;;;-143.84;53.47
6032;BME280;3044;43.232;27.972;2023-08-31T09:48:06;44923.41;;;-143.84;53.99
6032;BME280;3044;43.232;27.972;2023-08-31T09:50:33;44919.59;;;-143.84;49.96
6032;BME280;3044;43.232;27.972;2023-08-31T09:53:02;44944.34;;;-143.84;47.83
6032;BME280;3044;43.232;27.972;2023-08-31T09:55:31;44931.00;;;-143.84;45.64
6032;BME280;3044;43.232;27.972;2023-08-31T09:57:59;44919.59;;;-143.84;49.14
6032;BME280;3044;43.232;27.972;2023-08-31T10:00:27;44917.69;;;-143.84;49.89
6032;BME280;3044;43.232;27.972;2023-08-31T10:03:00;44891.03;;;-143.84;47.40
6032;BME280;3044;43.232;27.972;2023-08-31T10:05:28;44908.16;;;-143.84;46.50
6032;BME280;3044;43.232;27.972;2023-08-31T10:07:55;44896.75;;;-143.84;47.90
6032;BME280;3044;43.232;27.972;2023-08-31T10:10:23;44891.03;;;-143.84;48.55
6032;BME280;3044;43.232;27.972;2023-08-31T10:12:51;44898.66;;;-143.84;50.20
6032;BME280;3044;43.232;27.972;2023-08-31T10:15:20;44906.25;;;-143.84;52.18
6032;BME280;3044;43.232;27.972;2023-08-31T10:17:47;44873.88;;;-143.84;48.65
6032;BME280;3044;43.232;27.972;2023-08-31T10:20:17;44852.94;;;-143.84;41.51
6032;BME280;3044;43.232;27.972;2023-08-31T10:22:44;44877.69;;;-143.84;43.25
6032;BME280;3044;43.232;27.972;2023-08-31T10:25:11;44854.84;;;-143.84;43.32
6032;BME280;3044;43.232;27.972;2023-08-31T10:27:40;44889.13;;;-143.84;38.66
6032;BME280;3044;43.232;27.972;2023-08-31T10:30:24;44879.59;;;-143.84;39.50
6032;BME280;3044;43.232;27.972;2023-08-31T10:33:20;44849.13;;;-143.84;36.78
6032;BME280;3044;43.232;27.972;2023-08-31T10:35:51;44881.50;;;-143.84;35.13
6032;BME280;3044;43.232;27.972;2023-08-31T10:38:24;44858.66;;;-143.84;35.90
6032;BME280;3044;43.232;27.972;2023-08-31T10:41:03;44854.84;;;-143.84;33.80
6032;BME280;3044;43.232;27.972;2023-08-31T10:43:46;44854.84;;;-143.84;34.65
6032;BME280;3044;43.232;27.972;2023-08-31T10:46:19;44856.75;;;-143.84;33.51
6032;BME280;3044;43.232;27.972;2023-08-31T10:48:52;44847.22;;;-143.84;34.88
6032;BME280;3044;43.232;27.972;2023-08-31T10:51:23;44868.19;;;-143.84;34.36
6032;BME280;3044;43.232;27.972;2023-08-31T10:53:51;44854.84;;;-143.84;34.00
6032;BME280;3044;43.232;27.972;2023-08-31T10:56:18;44866.28;;;-143.84;34.36
6032;BME280;3044;43.232;27.972;2023-08-31T10:59:03;44856.75;;;-143.84;34.41
6032;BME280;3044;43.232;27.972;2023-08-31T11:01:55;44849.13;;;-143.84;33.52
6032;BME280;3044;43.232;27.972;2023-08-31T11:04:24;44889.13;;;-143.84;32.75
6032;BME280;3044;43.232;27.972;2023-08-31T11:07:16;44862.47;;;-143.84;34.76
6032;BME280;3044;43.232;27.972;2023-08-31T11:09:45;44862.47;;;-143.84;39.69
6032;BME280;3044;43.232;27.972;2023-08-31T11:12:13;44877.69;;;-143.84;39.58
6032;BME280;3044;43.232;27.972;2023-08-31T11:14:40;44847.22;;;-143.84;37.21
6032;BME280;3044;43.232;27.972;2023-08-31T11:17:08;44881.50;;;-143.84;44.13
6032;BME280;3044;43.232;27.972;2023-08-31T11:19:37;44904.34;;;-143.84;45.74
6032;BME280;3044;43.232;27.972;2023-08-31T11:22:06;44864.38;;;-143.84;47.10
6032;BME280;3044;43.232;27.972;2023-08-31T11:24:36;44883.41;;;-143.84;47.09
6032;BME280;3044;43.232;27.972;2023-08-31T11:27:07;44919.59;;;-143.84;47.46
6032;BME280;3044;43.232;27.972;2023-08-31T11:29:37;44906.25;;;-143.84;46.58
6032;BME280;3044;43.232;27.972;2023-08-31T11:32:06;44911.97;;;-143.84;47.05
6032;BME280;3044;43.232;27.972;2023-08-31T11:34:33;44885.31;;;-143.84;46.97
6032;BME280;3044;43.232;27.972;2023-08-31T11:37:02;44885.31;;;-143.84;48.06
6032;BME280;3044;43.232;27.972;2023-08-31T11:39:30;44911.97;;;-143.84;48.56
6032;BME280;3044;43.232;27.972;2023-08-31T11:41:59;44910.06;;;-143.84;54.15
6032;BME280;3044;43.232;27.972;2023-08-31T11:44:26;44957.66;;;-143.84;55.29
6032;BME280;3044;43.232;27.972;2023-08-31T11:46:54;44927.19;;;-143.84;57.19
6032;BME280;3044;43.232;27.972;2023-08-31T11:49:21;44934.81;;;-143.84;61.69
6032;BME280;3044;43.232;27.972;2023-08-31T11:51:49;44932.91;;;-143.84;60.89
6032;BME280;3044;43.232;27.972;2023-08-31T11:54:17;44938.63;;;-143.84;60.63
6032;BME280;3044;43.232;27.972;2023-08-31T11:56:45;44957.66;;;-143.84;60.38
6032;BME280;3044;43.232;27.972;2023-08-31T11:59:17;44950.06;;;-143.84;61.83
6032;BME280;3044;43.232;27.972;2023-08-31T12:01:46;44932.91;;;-143.84;61.13
6032;BME280;3044;43.232;27.972;2023-08-31T12:04:15;44948.16;;;-143.84;62.01
6032;BME280;3044;43.232;27.972;2023-08-31T12:06:46;44929.09;;;-143.84;61.79
6032;BME280;3044;43.232;27.972;2023-08-31T12:09:14;44925.31;;;-143.84;60.33
6032;BME280;3044;43.232;27.972;2023-08-31T12:11:41;44929.09;;;-143.84;59.65
6032;BME280;3044;43.232;27.972;2023-08-31T12:14:23;44957.66;;;-143.84;59.16
6032;BME280;3044;43.232;27.972;2023-08-31T12:16:59;44934.81;;;-143.84;59.68
6032;BME280;3044;43.232;27.972;2023-08-31T12:19:26;44959.56;;;-143.84;61.16
6032;BME280;3044;43.232;27.972;2023-08-31T12:21:54;44942.44;;;-143.84;64.95
6032;BME280;3044;43.232;27.972;2023-08-31T12:24:22;44951.97;;;-143.84;58.96
6032;BME280;3044;43.232;27.972;2023-08-31T12:26:50;44972.91;;;-143.84;56.95
6032;BME280;3044;43.232;27.972;2023-08-31T12:29:19;44971.00;;;-143.84;58.31
6032;BME280;3044;43.232;27.972;2023-08-31T12:31:48;44957.66;;;-143.84;59.82
6032;BME280;3044;43.232;27.972;2023-08-31T12:34:15;44951.97;;;-143.84;61.19
6032;BME280;3044;43.232;27.972;2023-08-31T12:36:43;44965.28;;;-143.84;63.85
6032;BME280;3044;43.232;27.972;2023-08-31T12:39:10;44950.06;;;-143.84;65.25
6032;BME280;3044;43.232;27.972;2023-08-31T12:41:38;44980.53;;;-143.84;66.81
6032;BME280;3044;43.232;27.972;2023-08-31T12:44:05;44957.66;;;-143.84;67.11
6032;BME280;3044;43.232;27.972;2023-08-31T12:46:32;44969.09;;;-143.84;67.04
6032;BME280;3044;43.232;27.972;2023-08-31T12:49:02;44984.31;;;-143.84;67.37
6032;BME280;3044;43.232;27.972;2023-08-31T12:51:30;44980.53;;;-143.84;67.52
6032;BME280;3044;43.232;27.972;2023-08-31T12:53:57;44965.28;;;-143.84;67.87